sensor_id;sensor_type;location;lat;lon;timestamp;P1;durP1;ratioP1;P2;durP2;ratioP2
84315;SDS011;74496;52.236;5.164;2024-02-15T00:00:58;16.63;;;3.65;;
84315;SDS011;74496;52.236;5.164;2024-02-15T00:03:25;15.57;;;4.60;;
84315;SDS011;74496;52.236;5.164;2024-02-15T00:05:53;32.10;;;5.43;;
84315;SDS011;74496;52.236;5.164;2024-02-15T00:08:20;14.70;;;4.53;;
84315;SDS011;74496;52.236;5.164;2024-02-15T00:10:47;23.95;;;4.90;;
84315;SDS011;74496;52.236;5.164;2024-02-15T00:13:14;11.35;;;4.97;;
84315;SDS011;74496;52.236;5.164;2024-02-15T00:15:40;15.30;;;5.13;;
84315;SDS011;74496;52.236;5.164;2024-02-15T00:18:07;13.32;;;5.22;;
84315;SDS011;74496;52.236;5.164;2024-02-15T00:20:34;19.73;;;6.20;;
84315;SDS011;74496;52.236;5.164;2024-02-15T00:23:02;13.63;;;5.95;;
84315;SDS011;74496;52.236;5.164;2024-02-15T00:25:29;15.07;;;5.65;;
84315;SDS011;74496;52.236;5.164;2024-02-15T00:27:56;11.00;;;5.55;;
84315;SDS011;74496;52.236;5.164;2024-02-15T00:30:23;12.85;;;4.68;;
84315;SDS011;74496;52.236;5.164;2024-02-15T00:32:49;18.03;;;5.73;;
84315;SDS011;74496;52.236;5.164;2024-02-15T00:35:16;9.85;;;4.15;;
84315;SDS011;74496;52.236;5.164;2024-02-15T00:37:43;11.02;;;5.45;;
84315;SDS011;74496;52.236;5.164;2024-02-15T00:40:12;9.13;;;4.13;;
84315;SDS011;74496;52.236;5.164;2024-02-15T00:42:39;14.95;;;4.57;;
84315;SDS011;74496;52.236;5.164;2024-02-15T00:45:06;13.73;;;4.67;;
84315;SDS011;74496;52.236;5.164;2024-02-15T00:47:34;13.82;;;4.45;;
84315;SDS011;74496;52.236;5.164;2024-02-15T00:50:01;9.77;;;4.45;;
84315;SDS011;74496;52.236;5.164;2024-02-15T00:52:28;11.75;;;3.35;;
84315;SDS011;74496;52.236;5.164;2024-02-15T00:54:56;15.05;;;4.05;;
84315;SDS011;74496;52.236;5.164;2024-02-15T00:57:24;10.10;;;4.07;;
84315;SDS011;74496;52.236;5.164;2024-02-15T00:59:50;8.27;;;3.90;;
84315;SDS011;74496;52.236;5.164;2024-02-15T01:02:18;6.72;;;3.30;;
84315;SDS011;74496;52.236;5.164;2024-02-15T01:04:44;15.07;;;4.18;;
84315;SDS011;74496;52.236;5.164;2024-02-15T01:07:11;8.65;;;3.72;;
84315;SDS011;74496;52.236;5.164;2024-02-15T01:09:38;11.63;;;3.73;;
84315;SDS011;74496;52.236;5.164;2024-02-15T01:12:05;9.60;;;3.80;;
84315;SDS011;74496;52.236;5.164;2024-02-15T01:14:33;8.63;;;4.28;;
84315;SDS011;74496;52.236;5.164;2024-02-15T01:17:00;6.97;;;4.00;;
84315;SDS011;74496;52.236;5.164;2024-02-15T01:19:27;8.10;;;4.15;;
84315;SDS011;74496;52.236;5.164;2024-02-15T01:21:54;10.03;;;4.23;;
84315;SDS011;74496;52.236;5.164;2024-02-15T01:24:20;6.90;;;3.88;;
84315;SDS011;74496;52.236;5.164;2024-02-15T01:26:47;10.82;;;4.32;;
84315;SDS011;74496;52.236;5.164;2024-02-15T01:29:14;9.68;;;4.10;;
84315;SDS011;74496;52.236;5.164;2024-02-15T01:31:43;7.80;;;4.20;;
84315;SDS011;74496;52.236;5.164;2024-02-15T01:34:10;8.47;;;4.40;;
84315;SDS011;74496;52.236;5.164;2024-02-15T01:36:36;7.72;;;4.28;;
84315;SDS011;74496;52.236;5.164;2024-02-15T01:39:03;9.63;;;3.95;;
84315;SDS011;74496;52.236;5.164;2024-02-15T01:41:30;10.35;;;4.63;;
84315;SDS011;74496;52.236;5.164;2024-02-15T01:43:56;8.70;;;4.55;;
84315;SDS011;74496;52.236;5.164;2024-02-15T01:46:23;6.87;;;4.30;;
84315;SDS011;74496;52.236;5.164;2024-02-15T01:48:52;9.63;;;4.43;;
84315;SDS011;74496;52.236;5.164;2024-02-15T01:51:21;11.48;;;5.25;;
84315;SDS011;74496;52.236;5.164;2024-02-15T01:53:50;10.05;;;5.45;;
84315;SDS011;74496;52.236;5.164;2024-02-15T01:56:19;9.75;;;5.70;;
84315;SDS011;74496;52.236;5.164;2024-02-15T01:58:48;9.27;;;5.73;;
84315;SDS011;74496;52.236;5.164;2024-02-15T02:01:15;10.77;;;5.45;;
84315;SDS011;74496;52.236;5.164;2024-02-15T02:03:43;9.35;;;6.15;;
84315;SDS011;74496;52.236;5.164;2024-02-15T02:06:11;10.98;;;6.50;;
84315;SDS011;74496;52.236;5.164;2024-02-15T02:08:39;11.07;;;5.88;;
84315;SDS011;74496;52.236;5.164;2024-02-15T02:11:06;13.53;;;6.80;;
84315;SDS011;74496;52.236;5.164;2024-02-15T02:13:33;16.20;;;6.75;;
84315;SDS011;74496;52.236;5.164;2024-02-15T02:16:00;14.63;;;6.60;;
84315;SDS011;74496;52.236;5.164;2024-02-15T02:18:26;15.80;;;7.05;;
84315;SDS011;74496;52.236;5.164;2024-02-15T02:20:53;13.65;;;7.65;;
84315;SDS011;74496;52.236;5.164;2024-02-15T02:23:21;8.67;;;6.77;;
84315;SDS011;74496;52.236;5.164;2024-02-15T02:25:53;9.95;;;7.15;;
84315;SDS011;74496;52.236;5.164;2024-02-15T02:28:21;19.23;;;7.63;;
84315;SDS011;74496;52.236;5.164;2024-02-15T02:30:48;11.52;;;6.57;;
84315;SDS011;74496;52.236;5.164;2024-02-15T02:33:14;15.48;;;7.13;;
84315;SDS011;74496;52.236;5.164;2024-02-15T02:35:43;11.90;;;7.13;;
84315;SDS011;74496;52.236;5.164;2024-02-15T02:38:11;11.80;;;6.60;;
84315;SDS011;74496;52.236;5.164;2024-02-15T02:40:39;13.52;;;6.95;;
84315;SDS011;74496;52.236;5.164;2024-02-15T02:43:08;14.40;;;7.25;;
84315;SDS011;74496;52.236;5.164;2024-02-15T02:45:34;13.40;;;6.82;;
84315;SDS011;74496;52.236;5.164;2024-02-15T02:48:01;10.27;;;6.57;;
84315;SDS011;74496;52.236;5.164;2024-02-15T02:50:28;16.60;;;7.55;;
84315;SDS011;74496;52.236;5.164;2024-02-15T02:52:55;16.63;;;7.63;;
84315;SDS011;74496;52.236;5.164;2024-02-15T02:55:22;22.90;;;8.60;;
84315;SDS011;74496;52.236;5.164;2024-02-15T02:57:49;15.27;;;7.68;;
84315;SDS011;74496;52.236;5.164;2024-02-15T03:00:18;19.27;;;7.50;;
84315;SDS011;74496;52.236;5.164;2024-02-15T03:02:45;15.00;;;7.47;;
84315;SDS011;74496;52.236;5.164;2024-02-15T03:05:12;12.60;;;6.70;;
84315;SDS011;74496;52.236;5.164;2024-02-15T03:07:40;12.85;;;7.22;;
84315;SDS011;74496;52.236;5.164;2024-02-15T03:10:07;13.25;;;7.40;;
84315;SDS011;74496;52.236;5.164;2024-02-15T03:12:39;14.90;;;8.23;;
84315;SDS011;74496;52.236;5.164;2024-02-15T03:15:06;18.83;;;7.32;;
84315;SDS011;74496;52.236;5.164;2024-02-15T03:17:37;14.82;;;7.75;;
84315;SDS011;74496;52.236;5.164;2024-02-15T03:20:04;10.90;;;7.13;;
84315;SDS011;74496;52.236;5.164;2024-02-15T03:22:36;14.90;;;7.47;;
84315;SDS011;74496;52.236;5.164;2024-02-15T03:25:03;12.27;;;6.87;;
84315;SDS011;74496;52.236;5.164;2024-02-15T03:27:32;19.17;;;8.55;;
84315;SDS011;74496;52.236;5.164;2024-02-15T03:29:59;11.75;;;7.00;;
84315;SDS011;74496;52.236;5.164;2024-02-15T03:32:26;18.20;;;8.18;;
84315;SDS011;74496;52.236;5.164;2024-02-15T03:34:54;16.42;;;7.00;;
84315;SDS011;74496;52.236;5.164;2024-02-15T03:37:21;11.60;;;6.53;;
84315;SDS011;74496;52.236;5.164;2024-02-15T03:39:47;10.15;;;6.30;;
84315;SDS011;74496;52.236;5.164;2024-02-15T03:42:14;18.77;;;6.28;;
84315;SDS011;74496;52.236;5.164;2024-02-15T03:44:41;12.70;;;6.18;;
84315;SDS011;74496;52.236;5.164;2024-02-15T03:47:07;12.65;;;6.50;;
84315;SDS011;74496;52.236;5.164;2024-02-15T03:49:34;12.87;;;6.23;;
84315;SDS011;74496;52.236;5.164;2024-02-15T03:52:02;14.60;;;6.07;;
84315;SDS011;74496;52.236;5.164;2024-02-15T03:54:29;15.45;;;5.85;;
84315;SDS011;74496;52.236;5.164;2024-02-15T03:56:56;11.63;;;5.45;;
84315;SDS011;74496;52.236;5.164;2024-02-15T03:59:23;12.18;;;5.20;;
84315;SDS011;74496;52.236;5.164;2024-02-15T04:01:52;10.93;;;5.33;;
84315;SDS011;74496;52.236;5.164;2024-02-15T04:04:19;9.82;;;5.70;;
84315;SDS011;74496;52.236;5.164;2024-02-15T04:06:47;12.65;;;5.57;;
84315;SDS011;74496;52.236;5.164;2024-02-15T04:09:15;8.88;;;4.80;;
84315;SDS011;74496;52.236;5.164;2024-02-15T04:11:42;7.18;;;4.50;;
84315;SDS011;74496;52.236;5.164;2024-02-15T04:14:09;10.93;;;4.53;;
84315;SDS011;74496;52.236;5.164;2024-02-15T04:16:36;13.30;;;5.60;;
84315;SDS011;74496;52.236;5.164;2024-02-15T04:19:03;7.68;;;4.93;;
84315;SDS011;74496;52.236;5.164;2024-02-15T04:21:29;11.25;;;5.30;;
84315;SDS011;74496;52.236;5.164;2024-02-15T04:23:57;9.35;;;4.63;;
84315;SDS011;74496;52.236;5.164;2024-02-15T04:26:26;12.07;;;5.57;;
84315;SDS011;74496;52.236;5.164;2024-02-15T04:28:55;13.02;;;5.82;;
84315;SDS011;74496;52.236;5.164;2024-02-15T04:31:22;11.10;;;5.40;;
84315;SDS011;74496;52.236;5.164;2024-02-15T04:33:51;12.55;;;5.10;;
84315;SDS011;74496;52.236;5.164;2024-02-15T04:36:18;8.05;;;4.72;;
84315;SDS011;74496;52.236;5.164;2024-02-15T04:38:48;10.47;;;4.80;;
84315;SDS011;74496;52.236;5.164;2024-02-15T04:41:16;11.75;;;5.22;;
84315;SDS011;74496;52.236;5.164;2024-02-15T04:43:47;9.55;;;4.93;;
84315;SDS011;74496;52.236;5.164;2024-02-15T04:46:13;9.77;;;5.00;;
84315;SDS011;74496;52.236;5.164;2024-02-15T04:48:40;13.10;;;5.15;;
84315;SDS011;74496;52.236;5.164;2024-02-15T04:51:08;9.80;;;5.40;;
84315;SDS011;74496;52.236;5.164;2024-02-15T04:53:35;14.75;;;5.05;;
84315;SDS011;74496;52.236;5.164;2024-02-15T04:56:04;11.68;;;4.93;;
84315;SDS011;74496;52.236;5.164;2024-02-15T04:58:36;11.82;;;4.97;;
84315;SDS011;74496;52.236;5.164;2024-02-15T05:01:12;11.63;;;5.65;;
84315;SDS011;74496;52.236;5.164;2024-02-15T05:03:41;11.37;;;6.30;;
84315;SDS011;74496;52.236;5.164;2024-02-15T05:06:07;6.57;;;5.40;;
84315;SDS011;74496;52.236;5.164;2024-02-15T05:08:35;13.98;;;6.15;;
84315;SDS011;74496;52.236;5.164;2024-02-15T05:11:03;8.93;;;5.60;;
84315;SDS011;74496;52.236;5.164;2024-02-15T05:13:31;14.88;;;6.53;;
84315;SDS011;74496;52.236;5.164;2024-02-15T05:15:59;12.33;;;6.07;;
84315;SDS011;74496;52.236;5.164;2024-02-15T05:18:27;13.10;;;6.10;;
84315;SDS011;74496;52.236;5.164;2024-02-15T05:20:55;9.52;;;5.40;;
84315;SDS011;74496;52.236;5.164;2024-02-15T05:23:22;8.80;;;6.13;;
84315;SDS011;74496;52.236;5.164;2024-02-15T05:25:50;10.48;;;6.13;;
84315;SDS011;74496;52.236;5.164;2024-02-15T05:28:19;9.13;;;6.43;;
84315;SDS011;74496;52.236;5.164;2024-02-15T05:31:08;10.48;;;6.45;;
84315;SDS011;74496;52.236;5.164;2024-02-15T05:33:37;9.82;;;6.05;;
84315;SDS011;74496;52.236;5.164;2024-02-15T05:36:08;7.47;;;5.88;;
84315;SDS011;74496;52.236;5.164;2024-02-15T05:38:35;10.73;;;6.57;;
84315;SDS011;74496;52.236;5.164;2024-02-15T05:41:02;12.37;;;7.13;;
84315;SDS011;74496;52.236;5.164;2024-02-15T05:43:29;11.25;;;6.80;;
84315;SDS011;74496;52.236;5.164;2024-02-15T05:45:57;15.73;;;6.88;;
84315;SDS011;74496;52.236;5.164;2024-02-15T05:48:24;10.20;;;5.78;;
84315;SDS011;74496;52.236;5.164;2024-02-15T05:50:54;7.53;;;6.47;;
84315;SDS011;74496;52.236;5.164;2024-02-15T05:53:22;8.17;;;7.23;;
84315;SDS011;74496;52.236;5.164;2024-02-15T05:55:49;10.93;;;6.10;;
84315;SDS011;74496;52.236;5.164;2024-02-15T05:58:15;10.32;;;6.28;;
84315;SDS011;74496;52.236;5.164;2024-02-15T06:00:42;11.27;;;6.53;;
84315;SDS011;74496;52.236;5.164;2024-02-15T06:03:11;9.80;;;6.93;;
84315;SDS011;74496;52.236;5.164;2024-02-15T06:05:38;9.97;;;7.07;;
84315;SDS011;74496;52.236;5.164;2024-02-15T06:08:07;10.75;;;7.35;;
84315;SDS011;74496;52.236;5.164;2024-02-15T06:10:34;14.15;;;7.13;;
84315;SDS011;74496;52.236;5.164;2024-02-15T06:13:01;10.23;;;6.72;;
84315;SDS011;74496;52.236;5.164;2024-02-15T06:15:27;12.15;;;7.18;;
84315;SDS011;74496;52.236;5.164;2024-02-15T06:17:54;11.60;;;7.10;;
84315;SDS011;74496;52.236;5.164;2024-02-15T06:20:22;11.80;;;7.50;;
84315;SDS011;74496;52.236;5.164;2024-02-15T06:22:50;10.25;;;7.32;;
84315;SDS011;74496;52.236;5.164;2024-02-15T06:25:18;12.50;;;7.80;;
84315;SDS011;74496;52.236;5.164;2024-02-15T06:27:46;13.25;;;7.97;;
84315;SDS011;74496;52.236;5.164;2024-02-15T06:30:13;8.53;;;6.83;;
84315;SDS011;74496;52.236;5.164;2024-02-15T06:32:58;17.98;;;7.10;;
84315;SDS011;74496;52.236;5.164;2024-02-15T06:35:45;11.75;;;7.32;;
84315;SDS011;74496;52.236;5.164;2024-02-15T06:38:29;9.60;;;7.55;;
84315;SDS011;74496;52.236;5.164;2024-02-15T06:41:15;12.90;;;8.85;;
84315;SDS011;74496;52.236;5.164;2024-02-15T06:43:44;11.27;;;8.10;;
84315;SDS011;74496;52.236;5.164;2024-02-15T06:46:11;10.55;;;8.23;;
84315;SDS011;74496;52.236;5.164;2024-02-15T06:48:41;8.70;;;7.68;;
84315;SDS011;74496;52.236;5.164;2024-02-15T06:51:11;11.77;;;7.63;;
84315;SDS011;74496;52.236;5.164;2024-02-15T06:53:40;9.30;;;7.32;;
84315;SDS011;74496;52.236;5.164;2024-02-15T06:56:08;11.67;;;7.27;;
84315;SDS011;74496;52.236;5.164;2024-02-15T06:58:37;11.13;;;7.32;;
84315;SDS011;74496;52.236;5.164;2024-02-15T07:01:05;11.65;;;6.90;;
84315;SDS011;74496;52.236;5.164;2024-02-15T07:03:32;8.93;;;6.60;;
84315;SDS011;74496;52.236;5.164;2024-02-15T07:05:59;9.00;;;7.25;;
84315;SDS011;74496;52.236;5.164;2024-02-15T07:08:28;7.93;;;7.13;;
84315;SDS011;74496;52.236;5.164;2024-02-15T07:10:54;10.55;;;7.10;;
84315;SDS011;74496;52.236;5.164;2024-02-15T07:13:21;7.57;;;6.78;;
84315;SDS011;74496;52.236;5.164;2024-02-15T07:15:50;7.28;;;6.45;;
84315;SDS011;74496;52.236;5.164;2024-02-15T07:18:17;14.50;;;6.80;;
84315;SDS011;74496;52.236;5.164;2024-02-15T07:20:45;7.17;;;6.50;;
84315;SDS011;74496;52.236;5.164;2024-02-15T07:23:12;7.20;;;6.40;;
84315;SDS011;74496;52.236;5.164;2024-02-15T07:25:39;6.22;;;5.65;;
84315;SDS011;74496;52.236;5.164;2024-02-15T07:28:06;10.65;;;6.50;;
84315;SDS011;74496;52.236;5.164;2024-02-15T07:30:36;8.80;;;6.15;;
84315;SDS011;74496;52.236;5.164;2024-02-15T07:33:05;6.63;;;5.43;;
84315;SDS011;74496;52.236;5.164;2024-02-15T07:35:31;5.70;;;5.25;;
84315;SDS011;74496;52.236;5.164;2024-02-15T07:37:58;5.60;;;5.10;;
84315;SDS011;74496;52.236;5.164;2024-02-15T07:40:26;5.97;;;5.22;;
84315;SDS011;74496;52.236;5.164;2024-02-15T07:42:54;5.40;;;4.97;;
84315;SDS011;74496;52.236;5.164;2024-02-15T07:45:22;4.43;;;4.13;;
84315;SDS011;74496;52.236;5.164;2024-02-15T07:47:49;5.00;;;4.63;;
84315;SDS011;74496;52.236;5.164;2024-02-15T07:50:17;7.28;;;4.72;;
84315;SDS011;74496;52.236;5.164;2024-02-15T07:52:48;6.95;;;4.68;;
84315;SDS011;74496;52.236;5.164;2024-02-15T07:55:17;4.80;;;4.50;;
84315;SDS011;74496;52.236;5.164;2024-02-15T07:57:47;4.13;;;3.83;;
84315;SDS011;74496;52.236;5.164;2024-02-15T08:00:14;4.68;;;4.30;;
84315;SDS011;74496;52.236;5.164;2024-02-15T08:02:41;4.57;;;4.20;;
84315;SDS011;74496;52.236;5.164;2024-02-15T08:05:09;4.78;;;4.30;;
84315;SDS011;74496;52.236;5.164;2024-02-15T08:07:40;8.20;;;3.80;;
84315;SDS011;74496;52.236;5.164;2024-02-15T08:10:08;5.57;;;3.63;;
84315;SDS011;74496;52.236;5.164;2024-02-15T08:12:38;3.88;;;3.58;;
84315;SDS011;74496;52.236;5.164;2024-02-15T08:15:06;3.15;;;2.95;;
84315;SDS011;74496;52.236;5.164;2024-02-15T08:17:37;3.72;;;3.42;;
84315;SDS011;74496;52.236;5.164;2024-02-15T08:20:06;4.15;;;3.85;;
84315;SDS011;74496;52.236;5.164;2024-02-15T08:22:34;3.83;;;3.53;;
84315;SDS011;74496;52.236;5.164;2024-02-15T08:25:06;3.47;;;3.17;;
84315;SDS011;74496;52.236;5.164;2024-02-15T08:27:36;3.45;;;3.15;;
84315;SDS011;74496;52.236;5.164;2024-02-15T08:30:07;3.45;;;3.15;;
84315;SDS011;74496;52.236;5.164;2024-02-15T08:32:35;3.50;;;3.20;;
84315;SDS011;74496;52.236;5.164;2024-02-15T08:35:02;3.80;;;3.50;;
84315;SDS011;74496;52.236;5.164;2024-02-15T08:37:31;3.28;;;3.08;;
84315;SDS011;74496;52.236;5.164;2024-02-15T08:39:59;2.58;;;2.38;;
84315;SDS011;74496;52.236;5.164;2024-02-15T08:42:27;3.15;;;2.85;;
84315;SDS011;74496;52.236;5.164;2024-02-15T08:44:54;2.38;;;2.17;;
84315;SDS011;74496;52.236;5.164;2024-02-15T08:47:20;2.63;;;2.43;;
84315;SDS011;74496;52.236;5.164;2024-02-15T08:49:47;2.95;;;2.25;;
84315;SDS011;74496;52.236;5.164;2024-02-15T08:52:14;3.63;;;2.80;;
84315;SDS011;74496;52.236;5.164;2024-02-15T08:54:43;2.70;;;2.50;;
84315;SDS011;74496;52.236;5.164;2024-02-15T08:57:10;2.60;;;2.42;;
84315;SDS011;74496;52.236;5.164;2024-02-15T08:59:39;2.40;;;2.20;;
84315;SDS011;74496;52.236;5.164;2024-02-15T09:02:07;4.13;;;2.67;;
84315;SDS011;74496;52.236;5.164;2024-02-15T09:04:34;2.80;;;2.60;;
84315;SDS011;74496;52.236;5.164;2024-02-15T09:07:01;2.80;;;2.60;;
84315;SDS011;74496;52.236;5.164;2024-02-15T09:09:29;3.20;;;2.90;;
84315;SDS011;74496;52.236;5.164;2024-02-15T09:12:00;4.23;;;3.37;;
84315;SDS011;74496;52.236;5.164;2024-02-15T09:14:27;3.60;;;3.10;;
84315;SDS011;74496;52.236;5.164;2024-02-15T09:16:55;3.60;;;3.28;;
84315;SDS011;74496;52.236;5.164;2024-02-15T09:19:22;5.57;;;3.60;;
84315;SDS011;74496;52.236;5.164;2024-02-15T09:21:49;5.93;;;3.25;;
84315;SDS011;74496;52.236;5.164;2024-02-15T09:24:16;3.97;;;2.90;;
84315;SDS011;74496;52.236;5.164;2024-02-15T09:26:43;5.88;;;3.60;;
84315;SDS011;74496;52.236;5.164;2024-02-15T09:29:09;3.88;;;3.40;;
84315;SDS011;74496;52.236;5.164;2024-02-15T09:31:37;5.40;;;3.83;;
84315;SDS011;74496;52.236;5.164;2024-02-15T09:34:06;8.32;;;3.90;;
84315;SDS011;74496;52.236;5.164;2024-02-15T09:36:33;6.77;;;3.40;;
84315;SDS011;74496;52.236;5.164;2024-02-15T09:39:03;5.97;;;3.45;;
84315;SDS011;74496;52.236;5.164;2024-02-15T09:41:31;4.97;;;3.55;;
84315;SDS011;74496;52.236;5.164;2024-02-15T09:43:59;6.57;;;3.75;;
84315;SDS011;74496;52.236;5.164;2024-02-15T09:46:26;3.92;;;3.53;;
84315;SDS011;74496;52.236;5.164;2024-02-15T09:48:54;6.10;;;3.83;;
84315;SDS011;74496;52.236;5.164;2024-02-15T09:51:24;4.65;;;3.60;;
84315;SDS011;74496;52.236;5.164;2024-02-15T09:53:52;9.73;;;4.00;;
84315;SDS011;74496;52.236;5.164;2024-02-15T09:56:20;8.63;;;3.60;;
84315;SDS011;74496;52.236;5.164;2024-02-15T09:58:49;5.82;;;3.75;;
84315;SDS011;74496;52.236;5.164;2024-02-15T10:01:17;5.57;;;3.50;;
84315;SDS011;74496;52.236;5.164;2024-02-15T10:03:46;5.78;;;3.38;;
84315;SDS011;74496;52.236;5.164;2024-02-15T10:06:16;6.97;;;3.63;;
84315;SDS011;74496;52.236;5.164;2024-02-15T10:08:45;7.07;;;3.83;;
84315;SDS011;74496;52.236;5.164;2024-02-15T10:11:12;14.65;;;4.13;;
84315;SDS011;74496;52.236;5.164;2024-02-15T10:13:40;5.67;;;3.70;;
84315;SDS011;74496;52.236;5.164;2024-02-15T10:16:16;5.28;;;3.53;;
84315;SDS011;74496;52.236;5.164;2024-02-15T10:18:43;7.72;;;4.03;;
84315;SDS011;74496;52.236;5.164;2024-02-15T10:21:10;7.93;;;4.40;;
84315;SDS011;74496;52.236;5.164;2024-02-15T10:23:57;9.57;;;4.10;;
84315;SDS011;74496;52.236;5.164;2024-02-15T10:26:30;9.93;;;4.77;;
84315;SDS011;74496;52.236;5.164;2024-02-15T10:29:10;8.50;;;4.80;;
84315;SDS011;74496;52.236;5.164;2024-02-15T10:31:38;8.27;;;4.45;;
84315;SDS011;74496;52.236;5.164;2024-02-15T10:34:06;11.90;;;4.63;;
84315;SDS011;74496;52.236;5.164;2024-02-15T10:36:33;12.57;;;5.13;;
84315;SDS011;74496;52.236;5.164;2024-02-15T10:39:11;11.83;;;4.47;;
84315;SDS011;74496;52.236;5.164;2024-02-15T10:41:43;9.73;;;4.40;;
84315;SDS011;74496;52.236;5.164;2024-02-15T10:44:12;9.38;;;4.43;;
84315;SDS011;74496;52.236;5.164;2024-02-15T10:46:42;11.20;;;4.32;;
84315;SDS011;74496;52.236;5.164;2024-02-15T10:49:10;7.13;;;3.95;;
84315;SDS011;74496;52.236;5.164;2024-02-15T10:51:36;13.97;;;4.33;;
84315;SDS011;74496;52.236;5.164;2024-02-15T10:54:11;7.20;;;4.32;;
84315;SDS011;74496;52.236;5.164;2024-02-15T10:56:42;5.53;;;4.40;;
84315;SDS011;74496;52.236;5.164;2024-02-15T10:59:16;12.70;;;4.90;;
84315;SDS011;74496;52.236;5.164;2024-02-15T11:01:44;9.25;;;3.97;;
84315;SDS011;74496;52.236;5.164;2024-02-15T11:04:14;9.43;;;4.27;;
84315;SDS011;74496;52.236;5.164;2024-02-15T11:06:42;9.10;;;4.50;;
84315;SDS011;74496;52.236;5.164;2024-02-15T11:09:10;7.05;;;4.30;;
84315;SDS011;74496;52.236;5.164;2024-02-15T11:11:40;13.23;;;4.70;;
84315;SDS011;74496;52.236;5.164;2024-02-15T11:14:28;10.95;;;4.47;;
84315;SDS011;74496;52.236;5.164;2024-02-15T11:16:56;8.03;;;4.07;;
84315;SDS011;74496;52.236;5.164;2024-02-15T11:19:42;10.55;;;4.75;;
84315;SDS011;74496;52.236;5.164;2024-02-15T11:22:14;8.85;;;4.18;;
84315;SDS011;74496;52.236;5.164;2024-02-15T11:24:48;8.98;;;5.00;;
84315;SDS011;74496;52.236;5.164;2024-02-15T11:27:27;12.73;;;4.72;;
84315;SDS011;74496;52.236;5.164;2024-02-15T11:29:54;9.30;;;5.03;;
84315;SDS011;74496;52.236;5.164;2024-02-15T11:32:34;8.35;;;4.93;;
84315;SDS011;74496;52.236;5.164;2024-02-15T11:35:02;11.55;;;4.97;;
84315;SDS011;74496;52.236;5.164;2024-02-15T11:40:28;10.43;;;4.70;;
84315;SDS011;74496;52.236;5.164;2024-02-15T11:42:57;9.73;;;4.87;;
84315;SDS011;74496;52.236;5.164;2024-02-15T11:45:24;8.85;;;5.30;;
84315;SDS011;74496;52.236;5.164;2024-02-15T11:47:52;8.90;;;4.50;;
84315;SDS011;74496;52.236;5.164;2024-02-15T11:50:21;9.90;;;4.90;;
84315;SDS011;74496;52.236;5.164;2024-02-15T11:52:49;11.68;;;5.57;;
84315;SDS011;74496;52.236;5.164;2024-02-15T11:55:20;9.23;;;5.63;;
84315;SDS011;74496;52.236;5.164;2024-02-15T11:57:54;12.02;;;5.35;;
84315;SDS011;74496;52.236;5.164;2024-02-15T12:00:28;13.07;;;5.50;;
84315;SDS011;74496;52.236;5.164;2024-02-15T12:03:13;8.55;;;5.00;;
84315;SDS011;74496;52.236;5.164;2024-02-15T12:05:58;8.70;;;5.40;;
84315;SDS011;74496;52.236;5.164;2024-02-15T12:08:43;12.00;;;5.97;;
84315;SDS011;74496;52.236;5.164;2024-02-15T12:11:28;11.05;;;5.07;;
84315;SDS011;74496;52.236;5.164;2024-02-15T12:14:14;11.60;;;5.80;;
84315;SDS011;74496;52.236;5.164;2024-02-15T12:17:01;14.70;;;5.88;;
84315;SDS011;74496;52.236;5.164;2024-02-15T12:19:47;9.02;;;5.78;;
84315;SDS011;74496;52.236;5.164;2024-02-15T12:22:14;11.20;;;5.80;;
84315;SDS011;74496;52.236;5.164;2024-02-15T12:24:41;8.93;;;5.22;;
84315;SDS011;74496;52.236;5.164;2024-02-15T12:27:09;6.22;;;4.93;;
84315;SDS011;74496;52.236;5.164;2024-02-15T12:29:37;8.80;;;5.38;;
84315;SDS011;74496;52.236;5.164;2024-02-15T12:32:03;9.07;;;5.40;;
84315;SDS011;74496;52.236;5.164;2024-02-15T12:34:30;5.77;;;4.80;;
84315;SDS011;74496;52.236;5.164;2024-02-15T12:37:06;8.15;;;5.13;;
84315;SDS011;74496;52.236;5.164;2024-02-15T12:39:34;7.43;;;5.30;;
84315;SDS011;74496;52.236;5.164;2024-02-15T12:42:02;7.80;;;4.82;;
84315;SDS011;74496;52.236;5.164;2024-02-15T12:44:29;8.38;;;5.05;;
84315;SDS011;74496;52.236;5.164;2024-02-15T12:46:59;9.20;;;4.87;;
84315;SDS011;74496;52.236;5.164;2024-02-15T12:49:28;6.25;;;4.70;;
84315;SDS011;74496;52.236;5.164;2024-02-15T12:55:07;12.48;;;5.03;;
84315;SDS011;74496;52.236;5.164;2024-02-15T12:57:36;8.85;;;4.45;;
84315;SDS011;74496;52.236;5.164;2024-02-15T13:00:06;5.90;;;4.20;;
84315;SDS011;74496;52.236;5.164;2024-02-15T13:02:40;7.32;;;4.20;;
84315;SDS011;74496;52.236;5.164;2024-02-15T13:05:07;4.00;;;3.60;;
84315;SDS011;74496;52.236;5.164;2024-02-15T13:07:34;7.03;;;3.78;;
84315;SDS011;74496;52.236;5.164;2024-02-15T13:10:01;5.85;;;3.75;;
84315;SDS011;74496;52.236;5.164;2024-02-15T13:12:29;5.70;;;3.70;;
84315;SDS011;74496;52.236;5.164;2024-02-15T13:14:55;4.15;;;3.50;;
84315;SDS011;74496;52.236;5.164;2024-02-15T13:17:23;4.13;;;3.67;;
84315;SDS011;74496;52.236;5.164;2024-02-15T13:19:53;5.72;;;3.30;;
84315;SDS011;74496;52.236;5.164;2024-02-15T13:22:27;6.22;;;3.67;;
84315;SDS011;74496;52.236;5.164;2024-02-15T13:24:54;5.50;;;3.60;;
84315;SDS011;74496;52.236;5.164;2024-02-15T13:27:21;6.70;;;3.38;;
84315;SDS011;74496;52.236;5.164;2024-02-15T13:29:49;4.25;;;2.72;;
84315;SDS011;74496;52.236;5.164;2024-02-15T13:32:15;6.97;;;2.72;;
84315;SDS011;74496;52.236;5.164;2024-02-15T13:34:46;6.05;;;3.20;;
84315;SDS011;74496;52.236;5.164;2024-02-15T13:37:18;5.90;;;2.77;;
84315;SDS011;74496;52.236;5.164;2024-02-15T13:39:46;4.28;;;2.80;;
84315;SDS011;74496;52.236;5.164;2024-02-15T13:42:13;2.67;;;2.05;;
84315;SDS011;74496;52.236;5.164;2024-02-15T13:44:42;4.47;;;2.53;;
84315;SDS011;74496;52.236;5.164;2024-02-15T13:47:08;5.68;;;2.33;;
84315;SDS011;74496;52.236;5.164;2024-02-15T13:49:36;2.63;;;2.43;;
84315;SDS011;74496;52.236;5.164;2024-02-15T13:52:04;3.33;;;2.83;;
84315;SDS011;74496;52.236;5.164;2024-02-15T13:54:32;5.30;;;2.78;;
84315;SDS011;74496;52.236;5.164;2024-02-15T13:56:59;4.10;;;2.50;;
84315;SDS011;74496;52.236;5.164;2024-02-15T13:59:29;6.40;;;2.63;;
84315;SDS011;74496;52.236;5.164;2024-02-15T14:01:56;4.20;;;2.60;;
84315;SDS011;74496;52.236;5.164;2024-02-15T14:04:23;5.05;;;2.80;;
84315;SDS011;74496;52.236;5.164;2024-02-15T14:06:49;3.30;;;2.22;;
84315;SDS011;74496;52.236;5.164;2024-02-15T14:09:16;4.57;;;2.40;;
84315;SDS011;74496;52.236;5.164;2024-02-15T14:11:44;6.50;;;2.72;;
84315;SDS011;74496;52.236;5.164;2024-02-15T14:14:11;3.07;;;2.53;;
84315;SDS011;74496;52.236;5.164;2024-02-15T14:16:39;6.22;;;2.20;;
84315;SDS011;74496;52.236;5.164;2024-02-15T14:19:05;6.88;;;2.40;;
84315;SDS011;74496;52.236;5.164;2024-02-15T14:21:32;3.25;;;2.03;;
84315;SDS011;74496;52.236;5.164;2024-02-15T14:24:05;5.30;;;2.35;;
84315;SDS011;74496;52.236;5.164;2024-02-15T14:26:35;4.40;;;2.37;;
84315;SDS011;74496;52.236;5.164;2024-02-15T14:29:03;6.03;;;2.45;;
84315;SDS011;74496;52.236;5.164;2024-02-15T14:31:30;7.03;;;2.60;;
84315;SDS011;74496;52.236;5.164;2024-02-15T14:34:15;4.53;;;2.20;;
84315;SDS011;74496;52.236;5.164;2024-02-15T14:36:43;7.55;;;2.20;;
84315;SDS011;74496;52.236;5.164;2024-02-15T14:39:10;4.23;;;2.10;;
84315;SDS011;74496;52.236;5.164;2024-02-15T14:41:39;3.05;;;2.03;;
84315;SDS011;74496;52.236;5.164;2024-02-15T14:44:07;6.68;;;2.20;;
84315;SDS011;74496;52.236;5.164;2024-02-15T14:46:34;7.38;;;2.30;;
84315;SDS011;74496;52.236;5.164;2024-02-15T14:49:03;5.28;;;2.53;;
84315;SDS011;74496;52.236;5.164;2024-02-15T14:51:31;6.97;;;2.27;;
84315;SDS011;74496;52.236;5.164;2024-02-15T14:54:01;3.38;;;2.00;;
84315;SDS011;74496;52.236;5.164;2024-02-15T14:56:29;7.43;;;2.75;;
84315;SDS011;74496;52.236;5.164;2024-02-15T14:58:58;4.40;;;2.05;;